Details From KNEW - Lakefront
To MWCR - Owen Roberts Intl
Flight Number -
Tags Generated
Created
Modified
Stats Distance 800 nm / 1,481 km
Max Altitude 0 ft / 0 m
Waypoints 3
Social Downloads 0
Likes 0
Share VATSIM

Download

Looking for another format? Having issues loading an existing format? Contact us
Advertisement - Login to hide

Notes

Generated

Route

KNEW GCM MWCR

ID Type Via Altitude Latitude Longitude Leg Dist Tot Dist Heading (true) Name
O KNEW APT - 0 ft / 0 m 30.03705˚ -90.03062˚ - 0 nm - Lakefront
GCM VOR - 0 ft / 0 m 19.28939˚ -81.37203˚ 799 nm 799 nm 142° / 146° GRAND CAYMAN VOR-DME
O MWCR APT - 0 ft / 0 m 19.29042˚ -81.36764˚ 0 nm 799 nm 76° / 76° -

Altitude Profile

Advertisement - Login to hide

Weather


0- 5 10 15 20 25 30 35+ Temperature / ° C

Clouds and Precipitation
Forecast for 2017-12-17 18:00 UTC. Updated an hour ago

Ground ~20,000 ft ~40,000 ft Winds

KNEW

Details ICAO KNEW
Name Lakefront
Region United States
Timezone America/Chicago (UTC-6.0)
Stats Elevation 7 ft / 2 m (AMSL)
Location 30.041857° -90.027690°
Runways 3
Magnetic Variation 0.888° W

METAR

KNEW 171623Z 27006KT 1/4SM FG FEW026 BKN031 OVC045 17/16 A3014 RMK AO2 P0018 T01670161

Decode

TAF

KNEW 171619Z 1716/1812 30006KT 2SM RA BR FEW016 SCT022 OVC029 TEMPO 1716/1718 3/4SM +SHRA BKN022 FM171900 20009KT P6SM BKN021 OVC040 FM172100 18004KT P6SM SCT025 BKN040 FM180500 16004KT 5SM BR BKN008 OVC060 FM181000 VRB03KT 2SM BR VCSH BKN008 OVC090

Decode

Departure Runways

ID Width Length Bearing (true) Bearing (mag) Surface Threshold Offset Overrun Length
09 75 ft / 23 m 3,108 ft / 947 m 89.20° 90.09° Asphalt 0 ft / 0 m 59 ft / 18 m
18L 75 ft / 23 m 3,710 ft / 1,131 m 179.26° 180.15° Asphalt 0 ft / 0 m 0 ft / 0 m
18R 150 ft / 46 m 6,904 ft / 2,104 m 179.27° 180.16° Asphalt 240 ft / 73 m 0 ft / 0 m
27 75 ft / 23 m 3,108 ft / 947 m 269.20° 270.09° Asphalt 0 ft / 0 m 49 ft / 15 m
36L 150 ft / 46 m 6,904 ft / 2,104 m 359.27° 0.16° Asphalt 820 ft / 250 m 0 ft / 0 m
36R 75 ft / 23 m 3,710 ft / 1,131 m 359.26° 0.15° Asphalt 0 ft / 0 m 0 ft / 0 m

MWCR

Details ICAO MWCR (GCM)
Name Owen Roberts Intl
Region Cayman Islands
Timezone America/Cayman (UTC-5.0)
Stats Elevation 7 ft / 2 m (AMSL)
Location 19.292776° -81.357760°
Runways 1
Magnetic Variation 4.990° W

METAR

MWCR 171600Z 06014KT 9999 BKN016 29/25 Q1019

Decode

TAF

Not found

Destination Runways

ID Width Length Bearing (true) Bearing (mag) Surface Threshold Offset Overrun Length
08 148 ft / 45 m 7,016 ft / 2,139 m 75.84° 80.83° Asphalt 0 ft / 0 m 0 ft / 0 m
26 148 ft / 45 m 7,016 ft / 2,139 m 255.85° 260.84° Asphalt 400 ft / 122 m 0 ft / 0 m